Time;durP1;ratioP1;P1;durP2;ratioP2;P2;SDS_P1;SDS_P2;PMS_P1;PMS_P2;Temp;Humidity;BMP_temperature;BMP_pressure;BME280_temperature;BME280_humidity;BME280_pressure;Samples;Min_cycle;Max_cycle;Signal;HPM_P1;HPM_P2
2024/04/11 00:02:01;;;;;;;;;2.67;2.67;;;;;;;;5418576;26;9082;-83
2024/04/11 00:04:30;;;;;;;;;2.67;2.67;;;;;;;;5393904;26;9198;-83
2024/04/11 00:07:02;;;;;;;;;3.00;3.00;;;;;;;;5402518;26;9098;-84
2024/04/11 00:09:31;;;;;;;;;2.33;2.33;;;;;;;;5390966;26;9086;-84
2024/04/11 00:12:03;;;;;;;;;6.67;5.67;;;;;;;;5382791;26;9076;-86
2024/04/11 00:14:32;;;;;;;;;2.00;2.00;;;;;;;;5411090;26;9184;-84
2024/04/11 00:17:01;;;;;;;;;5.33;4.00;;;;;;;;5398076;26;9081;-87
2024/04/11 00:19:28;;;;;;;;;4.00;4.00;;;;;;;;5406597;26;9192;-87
2024/04/11 00:21:57;;;;;;;;;2.67;2.67;;;;;;;;5381820;26;9064;-86
2024/04/11 00:24:23;;;;;;;;;3.67;3.67;;;;;;;;5405915;26;9096;-87
2024/04/11 00:26:52;;;;;;;;;3.00;3.00;;;;;;;;5403531;26;9020;-87
2024/04/11 00:29:18;;;;;;;;;4.00;4.00;;;;;;;;5388571;26;10020;-86
2024/04/11 00:31:50;;;;;;;;;5.00;3.67;;;;;;;;5373435;26;8994;-87
2024/04/11 00:34:22;;;;;;;;;3.00;3.00;;;;;;;;5374168;26;9181;-86
2024/04/11 00:36:53;;;;;;;;;3.67;3.00;;;;;;;;5361352;26;8926;-84
2024/04/11 00:39:20;;;;;;;;;2.33;2.33;;;;;;;;5365684;26;8953;-85
2024/04/11 00:41:50;;;;;;;;;4.00;4.00;;;;;;;;5369216;26;9014;-82
2024/04/11 00:44:17;;;;;;;;;2.00;2.00;;;;;;;;5374185;26;9078;-84
2024/04/11 00:46:51;;;;;;;;;5.33;4.00;;;;;;;;5381568;26;9091;-86
2024/04/11 00:49:19;;;;;;;;;3.00;3.00;;;;;;;;5365415;26;9182;-86
2024/04/11 00:51:47;;;;;;;;;5.00;3.00;;;;;;;;5367440;26;9317;-86
2024/04/11 00:54:15;;;;;;;;;3.00;3.00;;;;;;;;5380303;26;9105;-86
2024/04/11 00:56:45;;;;;;;;;6.00;3.00;;;;;;;;5380504;26;9099;-86
2024/04/11 00:59:12;;;;;;;;;6.00;4.00;;;;;;;;5379530;26;9170;-86
2024/04/11 01:01:41;;;;;;;;;3.67;2.33;;;;;;;;5370970;26;9129;-85
2024/04/11 01:04:11;;;;;;;;;3.00;3.00;;;;;;;;5346085;26;9184;-85
2024/04/11 01:07:06;;;;;;;;;5.00;3.33;;;;;;;;5369698;26;9218;-86
2024/04/11 01:09:33;;;;;;;;;1.67;1.67;;;;;;;;5347218;26;9223;-85
2024/04/11 01:12:02;;;;;;;;;5.00;5.00;;;;;;;;5346258;26;9201;-84
2024/04/11 01:14:32;;;;;;;;;5.67;4.33;;;;;;;;5371758;26;9206;-86
2024/04/11 01:17:04;;;;;;;;;8.00;3.33;;;;;;;;5361158;26;9203;-85
2024/04/11 01:19:33;;;;;;;;;4.00;4.00;;;;;;;;5351069;26;9341;-87
2024/04/11 01:22:03;;;;;;;;;3.33;3.33;;;;;;;;5348192;26;9183;-87
2024/04/11 01:24:34;;;;;;;;;3.00;3.00;;;;;;;;5347808;26;9270;-86
2024/04/11 01:27:14;;;;;;;;;4.00;4.00;;;;;;;;5370798;26;9435;-84
2024/04/11 01:29:41;;;;;;;;;3.00;3.00;;;;;;;;5383213;26;9370;-85
2024/04/11 01:32:10;;;;;;;;;3.00;3.00;;;;;;;;5380127;26;9170;-83
2024/04/11 01:34:37;;;;;;;;;6.00;4.33;;;;;;;;5379953;26;9364;-84
2024/04/11 01:37:06;;;;;;;;;4.00;4.00;;;;;;;;5379450;26;9313;-84
2024/04/11 01:39:37;;;;;;;;;4.00;4.00;;;;;;;;5377611;26;9601;-84
2024/04/11 01:42:08;;;;;;;;;4.33;3.00;;;;;;;;5380103;26;9376;-84
2024/04/11 01:44:37;;;;;;;;;5.00;5.00;;;;;;;;5362928;26;9454;-82
2024/04/11 01:47:06;;;;;;;;;3.00;3.00;;;;;;;;5380301;26;9392;-83
2024/04/11 01:49:34;;;;;;;;;3.67;3.67;;;;;;;;5362202;26;9370;-84
2024/04/11 01:52:09;;;;;;;;;2.00;2.00;;;;;;;;5372977;26;9396;-84
2024/04/11 01:54:39;;;;;;;;;3.67;3.67;;;;;;;;5371877;26;9342;-82
2024/04/11 01:57:10;;;;;;;;;3.67;3.67;;;;;;;;5382080;26;9273;-86
2024/04/11 01:59:36;;;;;;;;;4.00;3.00;;;;;;;;5381930;26;9319;-87
2024/04/11 02:02:08;;;;;;;;;4.00;4.00;;;;;;;;5367723;26;9330;-88
2024/04/11 02:04:34;;;;;;;;;5.00;5.00;;;;;;;;5368605;26;9280;-88
2024/04/11 02:07:06;;;;;;;;;4.67;4.67;;;;;;;;5367538;26;9317;-84
2024/04/11 02:09:32;;;;;;;;;4.00;4.00;;;;;;;;5357042;26;9245;-88
2024/04/11 02:12:17;;;;;;;;;3.00;3.00;;;;;;;;5367080;26;9271;-87
2024/04/11 02:14:43;;;;;;;;;4.00;2.67;;;;;;;;5364379;26;9979;-87
2024/04/11 02:17:12;;;;;;;;;5.00;5.00;;;;;;;;5378231;26;9152;-87
2024/04/11 02:19:39;;;;;;;;;6.00;4.33;;;;;;;;5360254;26;10026;-86
2024/04/11 02:22:08;;;;;;;;;5.00;5.00;;;;;;;;5357338;26;9178;-85
2024/04/11 02:24:36;;;;;;;;;5.00;5.00;;;;;;;;5379318;26;9986;-85
2024/04/11 02:27:05;;;;;;;;;4.00;4.00;;;;;;;;5378819;26;9312;-85
2024/04/11 02:29:35;;;;;;;;;4.33;3.00;;;;;;;;5377268;26;9912;-85
2024/04/11 02:32:07;;;;;;;;;4.33;4.33;;;;;;;;5382848;26;9177;-85
2024/04/11 02:34:33;;;;;;;;;2.67;2.67;;;;;;;;5355724;26;8990;-84
2024/04/11 02:37:11;;;;;;;;;3.00;3.00;;;;;;;;5378858;26;9189;-86
2024/04/11 02:39:37;;;;;;;;;3.67;3.00;;;;;;;;5378290;26;9216;-84
2024/04/11 02:42:07;;;;;;;;;8.00;5.00;;;;;;;;5364471;26;9351;-84
2024/04/11 02:44:36;;;;;;;;;3.00;3.00;;;;;;;;5390604;26;9430;-84
2024/04/11 02:47:05;;;;;;;;;2.67;2.00;;;;;;;;5362498;26;9333;-87
2024/04/11 02:49:31;;;;;;;;;2.00;2.00;;;;;;;;5374419;26;9285;-87
2024/04/11 02:52:03;;;;;;;;;3.00;3.00;;;;;;;;5362351;26;9290;-86
2024/04/11 02:54:32;;;;;;;;;3.67;2.33;;;;;;;;5375351;26;9175;-86
2024/04/11 02:57:04;;;;;;;;;2.00;2.00;;;;;;;;5378800;26;10305;-87
2024/04/11 02:59:30;;;;;;;;;3.67;3.00;;;;;;;;5377727;26;9161;-83
2024/04/11 03:02:04;;;;;;;;;3.67;3.67;;;;;;;;5351829;26;9204;-86
2024/04/11 03:04:33;;;;;;;;;5.00;4.00;;;;;;;;5377937;26;9341;-82
2024/04/11 03:07:02;;;;;;;;;3.00;3.00;;;;;;;;5354964;26;9268;-86
2024/04/11 03:09:31;;;;;;;;;3.00;3.00;;;;;;;;5369266;26;9318;-86
2024/04/11 03:12:06;;;;;;;;;3.00;3.00;;;;;;;;5369827;26;9170;-87
2024/04/11 03:14:32;;;;;;;;;4.00;4.00;;;;;;;;5348505;26;9281;-84
2024/04/11 03:17:04;;;;;;;;;2.00;2.00;;;;;;;;5370867;26;9175;-84
2024/04/11 03:19:33;;;;;;;;;2.00;2.00;;;;;;;;5362299;26;9192;-83
2024/04/11 03:22:05;;;;;;;;;6.33;3.67;;;;;;;;5344548;26;9359;-85
2024/04/11 03:24:32;;;;;;;;;2.67;2.67;;;;;;;;5345310;26;9232;-86
2024/04/11 03:27:03;;;;;;;;;5.00;2.00;;;;;;;;5352737;26;9102;-85
2024/04/11 03:29:33;;;;;;;;;5.00;3.33;;;;;;;;5360155;26;9226;-83
2024/04/11 03:32:04;;;;;;;;;3.00;3.00;;;;;;;;5394505;26;9026;-83
2024/04/11 03:34:32;;;;;;;;;3.00;3.00;;;;;;;;5358498;26;9276;-83
2024/04/11 03:37:04;;;;;;;;;2.33;2.33;;;;;;;;5379508;26;9249;-83
2024/04/11 03:39:31;;;;;;;;;2.00;2.00;;;;;;;;5379060;26;9020;-82
2024/04/11 03:42:03;;;;;;;;;3.00;3.00;;;;;;;;5400815;26;8924;-84
2024/04/11 03:44:35;;;;;;;;;2.00;2.00;;;;;;;;5379790;26;9157;-84
2024/04/11 03:47:08;;;;;;;;;2.00;2.00;;;;;;;;5395241;26;9062;-85
2024/04/11 03:49:38;;;;;;;;;1.67;1.67;;;;;;;;5400854;26;9056;-84
2024/04/11 03:52:06;;;;;;;;;3.00;3.00;;;;;;;;5394347;26;9113;-85
2024/04/11 03:54:37;;;;;;;;;2.00;2.00;;;;;;;;5391910;26;9125;-86
2024/04/11 03:57:07;;;;;;;;;3.00;3.00;;;;;;;;5391924;26;9178;-85
2024/04/11 03:59:36;;;;;;;;;3.00;3.00;;;;;;;;5379589;26;9165;-84
2024/04/11 04:02:06;;;;;;;;;2.00;2.00;;;;;;;;5367042;26;9025;-85
2024/04/11 04:04:35;;;;;;;;;3.00;3.00;;;;;;;;5348966;26;9174;-86
2024/04/11 04:07:01;;;;;;;;;2.67;2.67;;;;;;;;5377455;26;9255;-83
2024/04/11 04:09:32;;;;;;;;;2.00;2.00;;;;;;;;5376948;26;9982;-84
2024/04/11 04:11:58;;;;;;;;;5.00;3.00;;;;;;;;5367112;26;9267;-84
2024/04/11 04:14:28;;;;;;;;;2.67;2.67;;;;;;;;5357668;26;9316;-84
2024/04/11 04:16:54;;;;;;;;;3.33;3.33;;;;;;;;5375108;26;9362;-85
2024/04/11 04:19:27;;;;;;;;;3.00;3.00;;;;;;;;5356247;26;9471;-86
2024/04/11 04:21:53;;;;;;;;;3.00;3.00;;;;;;;;5376071;26;9477;-86
2024/04/11 04:24:22;;;;;;;;;2.00;2.00;;;;;;;;5364312;26;9470;-86
2024/04/11 04:26:48;;;;;;;;;2.67;2.67;;;;;;;;5364789;26;10319;-85
2024/04/11 04:29:17;;;;;;;;;3.00;3.00;;;;;;;;5363848;26;9442;-84
2024/04/11 04:31:43;;;;;;;;;3.00;3.00;;;;;;;;5387722;26;9244;-86
2024/04/11 04:34:15;;;;;;;;;2.67;2.67;;;;;;;;5377885;26;9391;-84
2024/04/11 04:36:46;;;;;;;;;3.00;3.00;;;;;;;;5398011;26;9313;-86
2024/04/11 04:39:16;;;;;;;;;3.00;3.00;;;;;;;;5394462;26;9474;-86
2024/04/11 04:41:43;;;;;;;;;1.67;1.67;;;;;;;;5382641;26;9312;-86
2024/04/11 04:44:12;;;;;;;;;4.00;3.33;;;;;;;;5364484;26;9553;-86
2024/04/11 04:46:39;;;;;;;;;3.00;3.00;;;;;;;;5402004;26;10144;-87
2024/04/11 04:49:10;;;;;;;;;2.33;2.33;;;;;;;;5393244;26;9418;-85
2024/04/11 04:51:38;;;;;;;;;2.33;2.33;;;;;;;;5404392;26;9405;-85
2024/04/11 04:54:13;;;;;;;;;3.00;3.00;;;;;;;;5409186;26;9386;-83
2024/04/11 04:56:41;;;;;;;;;2.00;2.00;;;;;;;;5386092;26;9310;-84
2024/04/11 04:59:10;;;;;;;;;4.00;4.00;;;;;;;;5387937;26;9332;-84
2024/04/11 05:01:40;;;;;;;;;4.75;4.00;;;;;;;;5368339;26;9228;-83
2024/04/11 05:04:13;;;;;;;;;3.67;3.67;;;;;;;;5374589;26;9536;-84
2024/04/11 05:06:45;;;;;;;;;6.00;4.00;;;;;;;;5362265;26;9390;-84
2024/04/11 05:09:14;;;;;;;;;4.50;3.75;;;;;;;;5357376;26;9606;-84
2024/04/11 05:11:44;;;;;;;;;3.00;3.00;;;;;;;;5372681;26;9459;-79
2024/04/11 05:14:10;;;;;;;;;3.00;3.00;;;;;;;;5362763;26;9283;-79
2024/04/11 05:16:41;;;;;;;;;3.33;3.33;;;;;;;;5378605;26;9361;-77
2024/04/11 05:19:15;;;;;;;;;5.67;3.00;;;;;;;;5375984;26;9422;-78
2024/04/11 05:21:45;;;;;;;;;3.00;3.00;;;;;;;;5378184;26;9270;-77
2024/04/11 05:24:17;;;;;;;;;2.00;2.00;;;;;;;;5357240;26;9431;-77
2024/04/11 05:26:50;;;;;;;;;2.00;2.00;;;;;;;;5376657;26;9243;-76
2024/04/11 05:29:17;;;;;;;;;3.33;3.33;;;;;;;;5361351;26;9190;-76
2024/04/11 05:31:45;;;;;;;;;2.00;2.00;;;;;;;;5381191;26;9218;-77
2024/04/11 05:34:16;;;;;;;;;3.00;3.00;;;;;;;;5378865;26;9047;-77
2024/04/11 05:36:45;;;;;;;;;4.00;2.33;;;;;;;;5377698;26;9279;-79
2024/04/11 05:39:14;;;;;;;;;4.00;2.00;;;;;;;;5377135;26;10010;-80
2024/04/11 05:41:46;;;;;;;;;5.00;4.00;;;;;;;;5377478;26;9333;-79
2024/04/11 05:44:13;;;;;;;;;6.67;4.00;;;;;;;;5376676;26;9357;-78
2024/04/11 05:46:45;;;;;;;;;3.00;3.00;;;;;;;;5377353;26;10038;-79
2024/04/11 05:49:12;;;;;;;;;5.33;3.00;;;;;;;;5377180;26;9230;-78
2024/04/11 05:51:41;;;;;;;;;3.67;3.67;;;;;;;;5377242;26;9256;-77
2024/04/11 05:54:11;;;;;;;;;3.33;3.33;;;;;;;;5377270;26;9079;-79
2024/04/11 05:56:40;;;;;;;;;3.00;3.00;;;;;;;;5374586;26;9185;-84
2024/04/11 05:59:08;;;;;;;;;3.33;2.00;;;;;;;;5397392;26;9390;-84
2024/04/11 06:01:40;;;;;;;;;46.25;39.25;;;;;;;;5359781;26;9250;-83
2024/04/11 06:04:06;;;;;;;;;11.33;9.33;;;;;;;;5376723;26;10778;-79
2024/04/11 06:06:35;;;;;;;;;3.33;2.67;;;;;;;;5372460;26;9508;-79
2024/04/11 06:09:02;;;;;;;;;3.00;3.00;;;;;;;;5357906;26;9069;-80
2024/04/11 06:11:34;;;;;;;;;4.25;2.75;;;;;;;;5363128;26;9137;-78
2024/04/11 06:14:05;;;;;;;;;51.75;44.00;;;;;;;;5356232;26;8842;-78
2024/04/11 06:16:37;;;;;;;;;27.00;23.75;;;;;;;;5343746;26;11154;-80
2024/04/11 06:19:12;;;;;;;;;33.25;28.50;;;;;;;;5374364;26;10034;-82
2024/04/11 06:21:45;;;;;;;;;14.50;12.50;;;;;;;;5356446;26;10078;-79
2024/04/11 06:24:11;;;;;;;;;13.33;13.33;;;;;;;;5357493;26;9466;-80
2024/04/11 06:26:46;;;;;;;;;21.25;21.25;;;;;;;;5379090;26;9497;-77
2024/04/11 06:29:14;;;;;;;;;8.33;8.33;;;;;;;;5363060;26;9557;-83
2024/04/11 06:31:46;;;;;;;;;18.75;14.75;;;;;;;;5394535;26;8998;-78
2024/04/11 06:34:13;;;;;;;;;33.25;31.25;;;;;;;;5377692;26;9495;-81
2024/04/11 06:36:42;;;;;;;;;12.50;12.00;;;;;;;;5377232;26;10195;-82
2024/04/11 06:39:09;;;;;;;;;3.25;3.25;;;;;;;;5377655;26;9486;-80
2024/04/11 06:41:39;;;;;;;;;3.33;3.33;;;;;;;;5377016;26;8848;-81
2024/04/11 06:44:12;;;;;;;;;4.00;4.00;;;;;;;;5377910;26;9011;-81
2024/04/11 06:46:44;;;;;;;;;3.00;3.00;;;;;;;;5377156;26;8867;-82
2024/04/11 06:49:16;;;;;;;;;3.50;3.50;;;;;;;;5377984;26;8828;-83
2024/04/11 06:51:42;;;;;;;;;2.25;2.25;;;;;;;;5357543;26;9600;-81
2024/04/11 06:54:14;;;;;;;;;5.00;3.33;;;;;;;;5377655;26;8852;-81
2024/04/11 06:56:43;;;;;;;;;4.00;4.00;;;;;;;;5376886;26;8938;-80
2024/04/11 06:59:17;;;;;;;;;3.00;2.00;;;;;;;;5379552;26;8868;-80
2024/04/11 07:01:45;;;;;;;;;3.50;3.00;;;;;;;;5379722;26;8788;-81
2024/04/11 07:04:16;;;;;;;;;3.00;3.00;;;;;;;;5354941;26;8820;-81
2024/04/11 07:06:42;;;;;;;;;3.00;3.00;;;;;;;;5366063;26;8907;-81
2024/04/11 07:09:11;;;;;;;;;2.00;1.00;;;;;;;;5370111;26;8832;-80
2024/04/11 07:11:40;;;;;;;;;3.50;3.50;;;;;;;;5365286;26;8852;-81
2024/04/11 07:14:15;;;;;;;;;4.00;2.75;;;;;;;;5378312;26;8808;-79
2024/04/11 07:16:44;;;;;;;;;4.50;2.75;;;;;;;;5378985;26;8968;-81
2024/04/11 07:19:17;;;;;;;;;2.50;2.50;;;;;;;;5378080;26;8942;-79
2024/04/11 07:21:44;;;;;;;;;8.00;3.00;;;;;;;;5373361;26;8875;-82
2024/04/11 07:24:23;;;;;;;;;4.00;4.00;;;;;;;;5376787;26;8825;-82
2024/04/11 07:26:51;;;;;;;;;5.25;3.75;;;;;;;;5391984;26;8972;-82
2024/04/11 07:29:21;;;;;;;;;2.00;2.00;;;;;;;;5372843;26;8836;-82
2024/04/11 07:31:48;;;;;;;;;3.50;3.50;;;;;;;;5383202;26;8913;-82
2024/04/11 07:34:22;;;;;;;;;2.75;2.75;;;;;;;;5367229;26;8880;-81
2024/04/11 07:36:51;;;;;;;;;5.75;3.00;;;;;;;;5375445;26;8860;-81
2024/04/11 07:39:20;;;;;;;;;2.25;2.25;;;;;;;;5376621;26;8929;-80
2024/04/11 07:41:46;;;;;;;;;5.75;2.75;;;;;;;;5371361;26;8848;-82
2024/04/11 07:44:22;;;;;;;;;3.50;3.00;;;;;;;;5386063;26;8836;-82
2024/04/11 07:46:49;;;;;;;;;5.25;3.75;;;;;;;;5376331;26;8847;-81
2024/04/11 07:49:23;;;;;;;;;3.00;3.00;;;;;;;;5380886;26;8832;-81
2024/04/11 07:51:51;;;;;;;;;2.75;2.75;;;;;;;;5372710;26;8993;-78
2024/04/11 07:54:22;;;;;;;;;2.00;2.00;;;;;;;;5376229;26;8801;-81
2024/04/11 07:56:48;;;;;;;;;4.00;2.50;;;;;;;;5376602;26;8863;-81
2024/04/11 07:59:17;;;;;;;;;2.75;2.75;;;;;;;;5375675;26;8840;-81
2024/04/11 08:01:44;;;;;;;;;1.75;1.75;;;;;;;;5371405;26;8757;-81
2024/04/11 08:04:13;;;;;;;;;5.00;3.00;;;;;;;;5366886;26;8864;-81
2024/04/11 08:06:43;;;;;;;;;2.50;2.50;;;;;;;;5373859;26;8883;-80
2024/04/11 08:09:15;;;;;;;;;0.75;0.75;;;;;;;;5378956;26;8944;-82
2024/04/11 08:11:41;;;;;;;;;2.50;2.50;;;;;;;;5388737;26;8861;-81
2024/04/11 08:14:10;;;;;;;;;2.00;2.00;;;;;;;;5374817;26;8828;-79
2024/04/11 08:16:36;;;;;;;;;1.00;1.00;;;;;;;;5379852;26;8852;-82
2024/04/11 08:19:09;;;;;;;;;2.00;2.00;;;;;;;;5371830;26;8836;-81
2024/04/11 08:21:36;;;;;;;;;2.00;2.00;;;;;;;;5368587;26;8873;-82
2024/04/11 08:24:07;;;;;;;;;1.25;1.25;;;;;;;;5377821;26;8957;-81
2024/04/11 08:26:37;;;;;;;;;3.00;3.00;;;;;;;;5379328;26;8852;-82
2024/04/11 08:29:06;;;;;;;;;2.00;2.00;;;;;;;;5378931;26;8870;-82
2024/04/11 08:31:32;;;;;;;;;3.00;2.00;;;;;;;;5396982;26;8800;-81
2024/04/11 08:34:05;;;;;;;;;2.00;2.00;;;;;;;;5379633;26;8876;-79
2024/04/11 08:36:31;;;;;;;;;2.25;2.25;;;;;;;;5381013;26;8863;-82
2024/04/11 08:39:04;;;;;;;;;5.00;2.25;;;;;;;;5397378;26;8915;-79
2024/04/11 08:41:33;;;;;;;;;2.00;2.00;;;;;;;;5379403;26;8828;-78
2024/04/11 08:44:05;;;;;;;;;5.50;4.00;;;;;;;;5396028;26;9628;-80
2024/04/11 08:46:32;;;;;;;;;3.50;2.50;;;;;;;;5386971;26;8852;-80
2024/04/11 08:49:04;;;;;;;;;1.25;1.25;;;;;;;;5394881;26;8992;-81
2024/04/11 08:51:34;;;;;;;;;3.25;3.25;;;;;;;;5408519;26;8905;-81
2024/04/11 08:54:06;;;;;;;;;2.50;2.00;;;;;;;;5393821;26;8897;-78
2024/04/11 08:56:35;;;;;;;;;3.00;3.00;;;;;;;;5381501;26;8832;-79
2024/04/11 08:59:05;;;;;;;;;3.50;3.00;;;;;;;;5402481;26;9740;-80
2024/04/11 09:01:31;;;;;;;;;4.00;3.00;;;;;;;;5382378;26;8803;-79
2024/04/11 09:04:02;;;;;;;;;3.00;2.00;;;;;;;;5383460;26;8852;-79
2024/04/11 09:06:31;;;;;;;;;3.00;3.00;;;;;;;;5391017;26;8859;-78
2024/04/11 09:09:16;;;;;;;;;2.00;2.00;;;;;;;;5385787;26;8980;-82
2024/04/11 09:11:46;;;;;;;;;4.50;3.00;;;;;;;;5379093;26;9789;-80
2024/04/11 09:14:15;;;;;;;;;4.50;3.50;;;;;;;;5378229;26;8874;-81
2024/04/11 09:16:42;;;;;;;;;4.75;4.75;;;;;;;;5400599;26;9667;-80
2024/04/11 09:19:12;;;;;;;;;5.25;4.25;;;;;;;;5408316;26;9692;-81
2024/04/11 09:21:43;;;;;;;;;4.00;2.50;;;;;;;;5388139;26;8839;-82
2024/04/11 09:24:13;;;;;;;;;3.25;3.25;;;;;;;;5357384;26;8948;-81
2024/04/11 09:26:41;;;;;;;;;3.00;3.00;;;;;;;;5377792;26;8859;-82
2024/04/11 09:29:17;;;;;;;;;4.00;3.00;;;;;;;;5377818;26;8909;-81
2024/04/11 09:31:44;;;;;;;;;5.25;4.00;;;;;;;;5376918;26;8910;-79
2024/04/11 09:34:20;;;;;;;;;5.00;3.75;;;;;;;;5362013;26;8957;-80
2024/04/11 09:36:47;;;;;;;;;3.50;3.50;;;;;;;;5375094;26;8854;-79
2024/04/11 09:39:41;;;;;;;;;3.50;3.50;;;;;;;;5378437;26;8836;-78
2024/04/11 09:42:11;;;;;;;;;4.00;4.00;;;;;;;;5359715;26;8860;-79
2024/04/11 09:44:47;;;;;;;;;4.00;4.00;;;;;;;;5398681;26;8852;-80
2024/04/11 09:47:14;;;;;;;;;4.00;4.00;;;;;;;;5378159;26;8884;-78
2024/04/11 09:49:53;;;;;;;;;5.25;5.25;;;;;;;;5375875;26;8850;-80
2024/04/11 09:52:22;;;;;;;;;5.00;5.00;;;;;;;;5377812;26;8840;-77
2024/04/11 09:54:52;;;;;;;;;3.50;3.50;;;;;;;;5377296;26;8874;-78
2024/04/11 09:57:19;;;;;;;;;6.75;6.75;;;;;;;;5377879;26;8872;-80
2024/04/11 09:59:51;;;;;;;;;6.00;6.00;;;;;;;;5388849;26;8844;-77
2024/04/11 10:02:19;;;;;;;;;4.00;4.00;;;;;;;;5386300;26;8793;-76
2024/04/11 10:04:48;;;;;;;;;7.00;5.00;;;;;;;;5370274;26;8844;-78
2024/04/11 10:07:19;;;;;;;;;6.50;6.00;;;;;;;;5379642;26;8851;-77
2024/04/11 10:09:57;;;;;;;;;5.25;4.75;;;;;;;;5396164;26;8973;-77
2024/04/11 10:12:28;;;;;;;;;7.00;7.00;;;;;;;;5387355;26;8848;-78
2024/04/11 10:15:06;;;;;;;;;6.50;5.75;;;;;;;;5377697;26;8852;-77
2024/04/11 10:17:36;;;;;;;;;6.00;4.00;;;;;;;;5376450;26;8848;-76
2024/04/11 10:20:15;;;;;;;;;6.25;6.00;;;;;;;;5355307;26;8859;-78
2024/04/11 10:22:43;;;;;;;;;8.50;8.50;;;;;;;;5378063;26;8896;-78
2024/04/11 10:25:21;;;;;;;;;6.00;6.00;;;;;;;;5380298;26;8812;-76
2024/04/11 10:27:47;;;;;;;;;8.25;7.50;;;;;;;;5409284;26;8952;-76
2024/04/11 10:30:21;;;;;;;;;5.00;5.00;;;;;;;;5383808;26;8867;-77
2024/04/11 10:32:47;;;;;;;;;8.00;7.50;;;;;;;;5407861;26;8951;-76
2024/04/11 10:35:19;;;;;;;;;6.00;4.75;;;;;;;;5379006;26;8832;-77
2024/04/11 10:37:46;;;;;;;;;5.50;4.75;;;;;;;;5398806;26;8820;-79
2024/04/11 10:40:17;;;;;;;;;6.00;6.00;;;;;;;;5396945;26;9647;-78
2024/04/11 10:43:11;;;;;;;;;6.00;6.00;;;;;;;;5378095;26;8869;-75
2024/04/11 10:45:38;;;;;;;;;8.25;8.25;;;;;;;;5378627;26;8858;-76
2024/04/11 10:48:09;;;;;;;;;7.00;7.00;;;;;;;;5382530;26;8990;-76
2024/04/11 10:50:41;;;;;;;;;6.75;6.75;;;;;;;;5392313;26;8882;-76
2024/04/11 10:53:07;;;;;;;;;7.25;7.25;;;;;;;;5378337;26;9319;-77
2024/04/11 10:55:43;;;;;;;;;6.50;6.25;;;;;;;;5398212;26;8874;-76
2024/04/11 10:58:13;;;;;;;;;6.75;6.75;;;;;;;;5383497;26;8871;-77
2024/04/11 11:03:46;;;;;;;;;6.25;6.25;;;;;;;;5380490;26;8861;-78
2024/04/11 11:06:24;;;;;;;;;8.25;7.00;;;;;;;;5376437;26;8891;-79
2024/04/11 11:08:58;;;;;;;;;10.00;8.75;;;;;;;;5376312;26;8868;-80
2024/04/11 11:11:26;;;;;;;;;6.50;6.50;;;;;;;;5377045;26;8868;-78
2024/04/11 11:13:56;;;;;;;;;6.25;6.25;;;;;;;;5376283;26;8836;-81
2024/04/11 11:16:31;;;;;;;;;7.50;7.50;;;;;;;;5376004;26;8949;-81
2024/04/11 11:19:04;;;;;;;;;8.00;8.00;;;;;;;;5405336;26;9008;-78
2024/04/11 11:21:33;;;;;;;;;13.25;8.00;;;;;;;;5389124;26;8848;-80
2024/04/11 11:24:06;;;;;;;;;8.75;8.75;;;;;;;;5375407;26;8856;-79
2024/04/11 11:26:35;;;;;;;;;8.00;8.00;;;;;;;;5367282;26;8829;-81
2024/04/11 11:29:06;;;;;;;;;9.75;9.75;;;;;;;;5378070;26;9633;-81
2024/04/11 11:31:36;;;;;;;;;8.25;8.25;;;;;;;;5389686;26;8777;-82
2024/04/11 11:34:09;;;;;;;;;7.00;7.00;;;;;;;;5403767;26;9051;-82
2024/04/11 11:36:37;;;;;;;;;8.75;8.75;;;;;;;;5410080;26;8855;-80
2024/04/11 11:39:17;;;;;;;;;8.75;6.75;;;;;;;;5397420;26;8813;-79
2024/04/11 11:41:47;;;;;;;;;6.75;6.75;;;;;;;;5390441;26;8929;-80
2024/04/11 11:44:21;;;;;;;;;7.00;6.75;;;;;;;;5403637;26;8824;-79
2024/04/11 11:46:54;;;;;;;;;6.60;6.20;;;;;;;;5396142;26;8848;-80
2024/04/11 11:49:23;;;;;;;;;11.20;8.20;;;;;;;;5392755;26;9541;-81
2024/04/11 11:51:49;;;;;;;;;7.60;7.60;;;;;;;;5401326;26;8848;-82
2024/04/11 11:54:24;;;;;;;;;6.80;6.80;;;;;;;;5407511;26;8852;-81
2024/04/11 11:57:09;;;;;;;;;7.40;6.80;;;;;;;;5406320;26;9648;-81
2024/04/11 11:59:38;;;;;;;;;8.00;8.00;;;;;;;;5410686;26;8831;-83
2024/04/11 12:02:13;;;;;;;;;8.00;7.60;;;;;;;;5384090;26;9604;-83
2024/04/11 12:04:44;;;;;;;;;5.00;5.00;;;;;;;;5364536;26;8860;-79
2024/04/11 12:07:12;;;;;;;;;6.20;6.20;;;;;;;;5371730;26;8855;-84
2024/04/11 12:09:43;;;;;;;;;7.20;5.20;;;;;;;;5379241;26;8793;-80
2024/04/11 12:12:20;;;;;;;;;5.00;5.00;;;;;;;;5367244;26;8837;-82
2024/04/11 12:14:54;;;;;;;;;7.00;7.00;;;;;;;;5359976;26;8840;-80
2024/04/11 12:17:24;;;;;;;;;7.80;6.80;;;;;;;;5346447;26;8868;-79
2024/04/11 12:19:54;;;;;;;;;11.00;10.00;;;;;;;;5346003;26;8884;-79
2024/04/11 12:22:20;;;;;;;;;6.20;6.20;;;;;;;;5346698;26;8892;-79
2024/04/11 12:24:50;;;;;;;;;7.80;7.80;;;;;;;;5367069;26;8840;-78
2024/04/11 12:27:21;;;;;;;;;6.75;6.75;;;;;;;;5375904;26;8840;-76
2024/04/11 12:29:50;;;;;;;;;5.20;5.20;;;;;;;;5379507;26;8872;-79
2024/04/11 12:32:18;;;;;;;;;4.25;4.25;;;;;;;;5360681;26;8831;-78
2024/04/11 12:34:49;;;;;;;;;6.00;6.00;;;;;;;;5379917;26;8937;-76
2024/04/11 12:37:16;;;;;;;;;4.00;4.00;;;;;;;;5361420;26;8832;-77
2024/04/11 12:39:53;;;;;;;;;3.20;3.20;;;;;;;;5374858;26;9020;-78
2024/04/11 12:42:22;;;;;;;;;5.00;5.00;;;;;;;;5365675;26;8856;-80
2024/04/11 12:44:55;;;;;;;;;5.00;3.40;;;;;;;;5378972;26;8933;-80
2024/04/11 12:47:30;;;;;;;;;4.00;4.00;;;;;;;;5378919;26;8867;-82
2024/04/11 12:50:05;;;;;;;;;5.00;3.80;;;;;;;;5373909;26;8859;-82
2024/04/11 12:52:31;;;;;;;;;3.20;3.20;;;;;;;;5377920;26;8855;-80
2024/04/11 12:55:01;;;;;;;;;3.80;3.80;;;;;;;;5377589;26;8808;-80
2024/04/11 12:57:28;;;;;;;;;5.00;3.80;;;;;;;;5378525;26;8866;-82
2024/04/11 13:00:07;;;;;;;;;6.80;4.00;;;;;;;;5378378;26;8887;-80
2024/04/11 13:02:34;;;;;;;;;2.00;2.00;;;;;;;;5372163;26;8852;-80
2024/04/11 13:05:13;;;;;;;;;8.80;5.60;;;;;;;;5364132;26;8977;-76
2024/04/11 13:07:42;;;;;;;;;5.60;4.60;;;;;;;;5353605;26;8836;-80
2024/04/11 13:10:12;;;;;;;;;5.80;5.00;;;;;;;;5367199;26;8884;-81
2024/04/11 13:12:43;;;;;;;;;3.80;3.80;;;;;;;;5361845;26;8844;-81
2024/04/11 13:15:19;;;;;;;;;5.80;5.80;;;;;;;;5379591;26;8848;-81
2024/04/11 13:17:51;;;;;;;;;4.75;4.75;;;;;;;;5365769;26;8836;-82
2024/04/11 13:20:34;;;;;;;;;3.20;3.20;;;;;;;;5371216;26;8852;-80
2024/04/11 13:23:09;;;;;;;;;5.40;5.40;;;;;;;;5378703;26;8907;-77
2024/04/11 13:25:39;;;;;;;;;5.00;5.00;;;;;;;;5355379;26;8875;-81
2024/04/11 13:28:05;;;;;;;;;5.00;5.00;;;;;;;;5355677;26;8910;-80
2024/04/11 13:30:37;;;;;;;;;4.80;4.20;;;;;;;;5367308;26;8783;-80
2024/04/11 13:33:14;;;;;;;;;3.80;3.80;;;;;;;;5350486;26;8795;-82
2024/04/11 13:35:51;;;;;;;;;4.40;3.00;;;;;;;;5365746;26;8896;-78
2024/04/11 13:38:21;;;;;;;;;4.40;4.40;;;;;;;;5377411;26;8823;-81
2024/04/11 13:41:15;;;;;;;;;4.60;4.60;;;;;;;;5363004;26;8959;-81
2024/04/11 13:43:44;;;;;;;;;4.00;4.00;;;;;;;;5357694;26;8869;-81
2024/04/11 13:46:15;;;;;;;;;4.20;4.20;;;;;;;;5375853;26;8900;-82
2024/04/11 13:48:47;;;;;;;;;4.20;3.00;;;;;;;;5377625;26;8870;-81
2024/04/11 13:51:23;;;;;;;;;2.60;2.60;;;;;;;;5353999;26;8831;-79
2024/04/11 13:53:54;;;;;;;;;5.00;5.00;;;;;;;;5378284;26;9702;-82
2024/04/11 13:56:29;;;;;;;;;4.60;4.20;;;;;;;;5368786;26;8908;-81
2024/04/11 13:58:58;;;;;;;;;6.40;6.00;;;;;;;;5370990;26;8849;-83
2024/04/11 14:01:31;;;;;;;;;5.40;4.00;;;;;;;;5377925;26;8768;-77
2024/04/11 14:04:02;;;;;;;;;3.80;3.80;;;;;;;;5354218;26;8882;-79
2024/04/11 14:06:57;;;;;;;;;3.40;2.80;;;;;;;;5369195;26;8839;-79
2024/04/11 14:09:28;;;;;;;;;4.40;3.80;;;;;;;;5354674;26;8873;-76
2024/04/11 14:12:03;;;;;;;;;7.20;7.20;;;;;;;;5360134;26;8874;-84
2024/04/11 14:14:34;;;;;;;;;3.80;3.80;;;;;;;;5379247;26;8857;-77
2024/04/11 14:17:07;;;;;;;;;6.00;5.20;;;;;;;;5375718;26;8854;-80
2024/04/11 14:19:38;;;;;;;;;3.80;3.80;;;;;;;;5362852;26;8877;-76
2024/04/11 14:22:29;;;;;;;;;4.60;3.20;;;;;;;;5353461;26;8822;-76
2024/04/11 14:24:58;;;;;;;;;3.20;3.20;;;;;;;;5345437;26;8865;-78
2024/04/11 14:27:29;;;;;;;;;3.40;3.40;;;;;;;;5379051;26;8861;-78
2024/04/11 14:30:00;;;;;;;;;2.60;2.60;;;;;;;;5357493;26;8993;-82
2024/04/11 14:33:09;;;;;;;;;3.00;3.00;;;;;;;;5379143;26;8785;-84
2024/04/11 14:36:25;;;;;;;;;3.60;3.60;;;;;;;;5388974;26;8808;-81
2024/04/11 14:38:19;;;;;;;;;3.40;3.40;;;;;;;;5389805;26;8812;-84
2024/04/11 14:40:45;;;;;;;;;3.20;3.20;;;;;;;;5384007;26;8886;-84
2024/04/11 14:43:20;;;;;;;;;4.40;3.60;;;;;;;;5392522;26;8867;-83
2024/04/11 14:45:47;;;;;;;;;2.20;2.20;;;;;;;;5408427;26;8832;-80
2024/04/11 14:48:18;;;;;;;;;1.00;1.00;;;;;;;;5411624;26;8848;-80
2024/04/11 14:50:48;;;;;;;;;3.80;2.00;;;;;;;;5394502;26;8892;-81
2024/04/11 14:53:22;;;;;;;;;2.20;2.20;;;;;;;;5382935;26;8856;-80
2024/04/11 14:55:49;;;;;;;;;2.80;2.80;;;;;;;;5396331;26;8875;-82
2024/04/11 14:58:19;;;;;;;;;3.20;3.20;;;;;;;;5402710;26;8893;-80
2024/04/11 15:00:46;;;;;;;;;3.00;3.00;;;;;;;;5406391;26;8854;-80
2024/04/11 15:03:18;;;;;;;;;4.00;4.00;;;;;;;;5383013;26;8840;-84
2024/04/11 15:05:50;;;;;;;;;3.00;3.00;;;;;;;;5396436;26;8852;-84
2024/04/11 15:08:22;;;;;;;;;3.00;3.00;;;;;;;;5399737;26;8883;-83
2024/04/11 15:10:50;;;;;;;;;3.20;3.20;;;;;;;;5382343;26;8824;-81
2024/04/11 15:13:20;;;;;;;;;4.20;4.20;;;;;;;;5380050;26;8844;-82
2024/04/11 15:15:59;;;;;;;;;4.00;4.00;;;;;;;;5387782;26;8844;-82
2024/04/11 15:18:28;;;;;;;;;4.40;4.40;;;;;;;;5389555;26;8929;-83
2024/04/11 15:21:10;;;;;;;;;5.40;3.80;;;;;;;;5391649;26;8855;-80